Terminal Aerodrome Forecast
Issued by NWS

Home | Current Version | Previous Version | Text Only | Print | Product List | Glossary On
Versions: 1 2 3 4 5 6 7 8 9 10 11 12 13 14 15 16 17 18 19 20
000
FTUS44 KBMX 222000 AAA
TAFTCL
TAF AMD
KTCL 222017Z 2220/2318 13008KT P6SM OVC013
     FM230200 15006KT 2SM BR OVC007
     FM231000 17005KT 3SM BR VCSH OVC005
     FM231700 15007KT 4SM SHRA OVC007=

USA.gov is the U.S. government's official web portal to all federal, state and local government web resources and services.